Tracer — PHAC — position and weather

sailwx.info

Track history (hours):
 
Tides and Currents Weather Stations Pressure Air Temp Water Temp Dewpoint Dewpoint Depression Visibility Wind Speed Wind Dir Waves Ship Positions

Tracer

Last reported at 2017-Jun-11 08:52 UTC. Time now 2017-Jun-28 12:12 UTC.
Position N 49°42' W 003°43'.
Warning: this ship's position is 17 days out of date.

Length 101 m; beam 20 m.

Type: Cargo ship. MMSI: 245949000.

Date/timePositionNaut miles runAvg speedWind from/ knotsBaromVisibWave heightAir tempDewpointWater temp
2017-Jun-11 08:52N 49°42' W 003°43'511.4
2017-Jun-11 08:25N 49°44' W 003°36'1111.1
2017-Jun-11 07:25N 49°50' W 003°21'410.8
2017-Jun-11 07:00N 49°52' W 003°15'611.0
2017-Jun-11 06:28N 49°55' W 003°07'612.0
2017-Jun-11 06:00N 49°58' W 002°59'612.7
2017-Jun-11 05:30N 50°00' W 002°50'713.6
2017-Jun-11 05:00N 50°02' W 002°40'3315.6
2017-Jun-11 02:52N 50°11' W 001°50'616.9
2017-Jun-11 02:30N 50°13' W 001°41'816.6
2017-Jun-11 02:00N 50°15' W 001°28'1116.2
2017-Jun-11 01:21N 50°18' W 001°12'3513.8
2017-Jun-10 22:47N 50°28' W 000°19'612.5
2017-Jun-10 22:19N 50°30' W 000°11'412.2
2017-Jun-10 22:00N 50°31' W 000°05'612.2
2017-Jun-10 21:30N 50°33' E 000°05'712.2
2017-Jun-10 20:58N 50°35' E 000°14'4314.3
2017-Jun-10 17:58N 50°56' E 001°14'815.7
2017-Jun-10 17:27N 51°02' E 001°23'614.8
2017-Jun-10 17:00N 51°06' E 001°31'713.9
2017-Jun-10 16:30N 51°10' E 001°39'613.0
2017-Jun-10 16:00N 51°15' E 001°47'612.6
2017-Jun-10 15:30N 51°20' E 001°52'612.3
2017-Jun-10 15:00N 51°25' E 001°57'1212.2
2017-Jun-10 14:00N 51°35' E 002°09'712.7
2017-Jun-10 13:29N 51°40' E 002°16'2513.7
2017-Jun-10 11:39N 51°59' E 002°43'514.9
2017-Jun-10 11:18N 52°03' E 002°48'415.2
2017-Jun-10 11:00N 52°06' E 002°53'815.3
2017-Jun-10 10:29N 52°12' E 003°01'815.5
2017-Jun-10 10:00N 52°19' E 003°08'1615.5
2017-Jun-10 08:56N 52°32' E 003°24'715.4
2017-Jun-10 08:29N 52°37' E 003°31'715.3
2017-Jun-10 07:59N 52°43' E 003°39'815.3
2017-Jun-10 07:29N 52°49' E 003°47'714.8
2017-Jun-10 06:59N 52°55' E 003°55'814.3
2017-Jun-10 06:27N 53°00' E 004°05'614.2
2017-Jun-10 06:00N 53°04' E 004°13'714.0
2017-Jun-10 05:30N 53°08' E 004°22'1913.3
2017-Jun-10 04:03N 53°26' E 004°35'113.9
2017-Jun-10 04:00N 53°26' E 004°36'814.0
2017-Jun-10 03:24N 53°31' E 004°48'615.0
2017-Jun-10 03:00N 53°33' E 004°58'12114.2
2017-Jun-09 18:31N 53°60' E 008°17'0 8.7
2017-Jun-09 18:30N 53°60' E 008°17'714.8
2017-Jun-09 18:00N 53°59' E 008°29'815.3
2017-Jun-09 17:29N 53°55' E 008°41'714.9
2017-Jun-09 17:00N 53°50' E 008°51'917.6
2017-Jun-09 16:30N 53°53' E 009°05'612.9
2017-Jun-09 16:00N 53°52' E 009°16'815.2
2017-Jun-09 15:30N 53°46' E 009°24'714.2
2017-Jun-09 15:00N 53°40' E 009°31'612.7
2017-Jun-09 14:30N 53°35' E 009°37'1110.6
2017-Jun-09 13:30N 53°33' E 009°54'3 5.9
2017-Jun-09 12:58N 53°32' E 009°59'0 0.0
2017-Jun-09 12:28N 53°32' E 009°59'0 0.0
2017-Jun-09 11:58N 53°32' E 009°59'0 0.0
2017-Jun-09 11:28N 53°32' E 009°59'0 0.0
2017-Jun-09 10:58N 53°32' E 009°59'0 0.0
2017-Jun-09 10:28N 53°32' E 009°59'0 0.0
2017-Jun-09 09:58N 53°32' E 009°59'0 0.0
2017-Jun-09 09:28N 53°32' E 009°59'0 0.0
2017-Jun-09 08:58N 53°32' E 009°59'0 0.0
2017-Jun-09 08:28N 53°32' E 009°59'0 0.0
2017-Jun-09 07:58N 53°32' E 009°59'0 0.0
2017-Jun-09 07:28N 53°32' E 009°59'0 0.0
2017-Jun-09 06:58N 53°32' E 009°59'0 0.0
2017-Jun-09 06:28N 53°32' E 009°59'0 0.0
2017-Jun-09 05:58N 53°32' E 009°59'0 0.0
2017-Jun-09 05:28N 53°32' E 009°59'0 0.0
2017-Jun-09 04:58N 53°32' E 009°59'0 0.0
2017-Jun-09 04:28N 53°32' E 009°59'0 0.0
2017-Jun-09 04:01N 53°32' E 009°59'0 0.0
2017-Jun-09 03:31N 53°32' E 009°59'0 0.0
2017-Jun-09 03:00N 53°32' E 009°59'0 0.0
2017-Jun-09 02:30N 53°32' E 009°59'0 0.0
2017-Jun-09 02:00N 53°32' E 009°59'0 0.0
2017-Jun-09 01:31N 53°32' E 009°59'0 0.0
2017-Jun-09 01:00N 53°32' E 009°59'0 0.0
2017-Jun-09 00:30N 53°32' E 009°59'0 0.0
2017-Jun-09 00:00N 53°32' E 009°59'0 0.0
2017-Jun-08 23:31N 53°32' E 009°59'2 4.8
2017-Jun-08 23:01N 53°32' E 009°55'611.6
2017-Jun-08 22:31N 53°34' E 009°46'713.5
2017-Jun-08 22:00N 53°36' E 009°35'612.2
2017-Jun-08 21:30N 53°41' E 009°30'713.8
2017-Jun-08 21:00N 53°47' E 009°23'713.2
2017-Jun-08 20:31N 53°52' E 009°16'611.9
2017-Jun-08 20:00N 53°53' E 009°06'510.5
2017-Jun-08 19:31N 53°51' E 008°58'612.5
2017-Jun-08 19:00N 53°50' E 008°47'611.2
2017-Jun-08 18:30N 53°55' E 008°41'612.0
2017-Jun-08 18:00N 53°58' E 008°32'612.9
2017-Jun-08 17:30N 53°59' E 008°22'713.8
2017-Jun-08 16:58N 53°60' E 008°09'511.4
2017-Jun-08 16:30N 53°59' E 008°00'612.1
2017-Jun-08 16:01N 53°58' E 007°50'612.0
2017-Jun-08 15:30N 53°56' E 007°40'12713.9
2017-Jun-08 06:22N 53°04' E 004°25'514.9
2017-Jun-08 06:00N 52°59' E 004°21'814.9
2017-Jun-08 05:30N 52°53' E 004°15'714.9
2017-Jun-08 05:00N 52°46' E 004°09'815.2
2017-Jun-08 04:30N 52°40' E 004°02'815.4
2017-Jun-08 04:00N 52°33' E 003°56'815.3
2017-Jun-08 03:30N 52°25' E 003°53'815.3
2017-Jun-08 03:00N 52°18' E 003°52'815.2
2017-Jun-08 02:30N 52°10' E 003°54'714.1
2017-Jun-08 02:00N 52°04' E 003°58'613.0
2017-Jun-08 01:30N 51°59' E 004°05'4 8.9
2017-Jun-08 01:00N 51°57' E 004°11'510.5
2017-Jun-08 00:30N 51°54' E 004°18'5 9.1
2017-Jun-08 00:00N 51°54' E 004°25'0 0.7
2017-Jun-07 23:30N 51°54' E 004°26'0 0.0
2017-Jun-07 23:00N 51°54' E 004°26'0 0.0
2017-Jun-07 22:30N 51°54' E 004°26'0 0.0
2017-Jun-07 22:00N 51°54' E 004°26'0 0.0
2017-Jun-07 21:30N 51°54' E 004°26'0 0.0
2017-Jun-07 21:00N 51°54' E 004°26'0 0.0
2017-Jun-07 20:29N 51°54' E 004°26'0 0.0
2017-Jun-07 19:59N 51°54' E 004°26'0 0.0
2017-Jun-07 19:29N 51°54' E 004°26'0 0.0
2017-Jun-07 18:59N 51°54' E 004°26'0 0.0
2017-Jun-07 18:29N 51°54' E 004°26'0 0.0
2017-Jun-07 17:59N 51°54' E 004°26'0 0.0
2017-Jun-07 17:29N 51°54' E 004°26'0 0.0
2017-Jun-07 16:59N 51°54' E 004°26'0 0.0
2017-Jun-07 16:29N 51°54' E 004°26'0 0.0
2017-Jun-07 15:59N 51°54' E 004°26'0 0.0
2017-Jun-07 15:30N 51°54' E 004°26'0 0.0
2017-Jun-07 14:59N 51°54' E 004°26'0 0.0
2017-Jun-07 13:57N 51°54' E 004°26'0 0.0
2017-Jun-07 13:30N 51°54' E 004°26'0 0.0
2017-Jun-07 12:54N 51°54' E 004°26'0 0.0
2017-Jun-07 12:29N 51°54' E 004°26'0 0.0
2017-Jun-07 12:00N 51°54' E 004°26'0 0.0
2017-Jun-07 11:30N 51°54' E 004°26'0 0.0
2017-Jun-07 10:57N 51°54' E 004°26'0 0.0
2017-Jun-07 10:30N 51°54' E 004°26'0 0.0
2017-Jun-07 09:59N 51°54' E 004°26'0 0.0
2017-Jun-07 09:30N 51°54' E 004°26'0 0.0
2017-Jun-07 09:00N 51°54' E 004°26'0 0.0
2017-Jun-07 08:29N 51°54' E 004°26'0 0.0
2017-Jun-07 07:59N 51°54' E 004°26'0 0.0
2017-Jun-07 07:29N 51°54' E 004°26'0 0.0
2017-Jun-07 06:59N 51°54' E 004°26'0 0.0
2017-Jun-07 06:29N 51°54' E 004°26'0 0.0
2017-Jun-07 05:59N 51°54' E 004°26'0 0.0
2017-Jun-07 05:29N 51°54' E 004°26'0 0.0
2017-Jun-07 04:59N 51°54' E 004°26'0 0.0
2017-Jun-07 04:29N 51°54' E 004°26'0 0.0
2017-Jun-07 03:59N 51°54' E 004°26'0 0.0
2017-Jun-07 03:29N 51°54' E 004°26'0 0.0
2017-Jun-07 02:59N 51°54' E 004°26'0 0.0
2017-Jun-07 02:29N 51°54' E 004°26'0 0.0
2017-Jun-07 01:59N 51°54' E 004°26'0 0.0
2017-Jun-07 01:29N 51°54' E 004°26'0 0.0
2017-Jun-07 00:59N 51°54' E 004°26'0 0.0
2017-Jun-07 00:29N 51°54' E 004°26'0 0.0
2017-Jun-06 23:59N 51°54' E 004°26'0 0.0
2017-Jun-06 23:29N 51°54' E 004°26'0 0.0
2017-Jun-06 22:59N 51°54' E 004°26'0 0.0
2017-Jun-06 22:29N 51°54' E 004°26'0 0.0
2017-Jun-06 21:59N 51°54' E 004°26'0 0.0
2017-Jun-06 21:29N 51°54' E 004°26'0 0.0
2017-Jun-06 20:59N 51°54' E 004°26'0 0.0
2017-Jun-06 20:29N 51°54' E 004°26'0 0.0
2017-Jun-06 19:59N 51°54' E 004°26'0 0.0
2017-Jun-06 19:29N 51°54' E 004°26'0 0.0
2017-Jun-06 18:59N 51°54' E 004°26'0 0.0
2017-Jun-06 18:29N 51°54' E 004°26'0 0.0
2017-Jun-06 17:59N 51°54' E 004°26'0 0.0
2017-Jun-06 17:29N 51°54' E 004°26'0 0.0
2017-Jun-06 16:59N 51°54' E 004°26'0 0.0
2017-Jun-06 16:29N 51°54' E 004°26'0 0.0
2017-Jun-06 15:59N 51°54' E 004°26'0 0.0
2017-Jun-06 15:29N 51°54' E 004°26'0 0.0
2017-Jun-06 14:59N 51°54' E 004°26'0 0.1
2017-Jun-06 14:29N 51°54' E 004°26'0 0.0
2017-Jun-06 13:29N 51°54' E 004°26'0 0.0
2017-Jun-06 12:59N 51°54' E 004°26'0 0.0
2017-Jun-06 12:29N 51°54' E 004°26'0 0.0
2017-Jun-06 11:59N 51°54' E 004°26'0 0.0
2017-Jun-06 11:29N 51°54' E 004°26'0 0.0
2017-Jun-06 10:59N 51°54' E 004°26'0 0.0
2017-Jun-06 10:29N 51°54' E 004°26'0 0.0
2017-Jun-06 09:58N 51°54' E 004°26'0 0.0
2017-Jun-06 09:29N 51°54' E 004°26'0 0.0
2017-Jun-06 08:58N 51°54' E 004°26'0 0.0
2017-Jun-06 08:28N 51°54' E 004°26'0 0.0
2017-Jun-06 07:58N 51°54' E 004°26'0 0.0
2017-Jun-06 07:28N 51°54' E 004°26'0 0.0
2017-Jun-06 06:58N 51°54' E 004°26'0 0.0
2017-Jun-06 06:28N 51°54' E 004°26'0 0.0
2017-Jun-06 05:58N 51°54' E 004°26'0 0.0
2017-Jun-06 05:28N 51°54' E 004°26'0 0.0
2017-Jun-06 04:59N 51°54' E 004°26'0 0.0
2017-Jun-06 04:25N 51°54' E 004°26'0 0.0
2017-Jun-06 03:59N 51°54' E 004°26'0 0.0
2017-Jun-06 03:29N 51°54' E 004°26'0 0.0
2017-Jun-06 02:59N 51°54' E 004°26'0 0.0
2017-Jun-06 02:29N 51°54' E 004°26'0 0.0
2017-Jun-06 01:59N 51°54' E 004°26'0 0.0
2017-Jun-06 01:28N 51°54' E 004°26'0 0.0
2017-Jun-06 00:59N 51°54' E 004°26'0 0.0
2017-Jun-06 00:29N 51°54' E 004°26'0 0.0
2017-Jun-05 23:58N 51°54' E 004°26'0 0.0
2017-Jun-05 23:29N 51°54' E 004°26'0 0.0
2017-Jun-05 22:59N 51°54' E 004°26'0 0.0
2017-Jun-05 22:28N 51°54' E 004°26'0 0.0
2017-Jun-05 21:59N 51°54' E 004°26'0 0.0
2017-Jun-05 21:29N 51°54' E 004°26'0 0.0
2017-Jun-05 20:59N 51°54' E 004°26'0 0.0
2017-Jun-05 20:28N 51°54' E 004°26'0 0.0
2017-Jun-05 19:59N 51°54' E 004°26'0 0.0
2017-Jun-05 19:25N 51°54' E 004°26'0 0.0
2017-Jun-05 18:58N 51°54' E 004°26'0 0.0
2017-Jun-05 18:28N 51°54' E 004°26'0 0.0
2017-Jun-05 17:58N 51°54' E 004°26'0 0.0
2017-Jun-05 17:28N 51°54' E 004°26'0 0.0
2017-Jun-05 16:58N 51°54' E 004°26'0 0.0
2017-Jun-05 16:28N 51°54' E 004°26'0 0.0
2017-Jun-05 15:58N 51°54' E 004°26'0 0.0
2017-Jun-05 15:28N 51°54' E 004°26'0 0.0
2017-Jun-05 14:58N 51°54' E 004°26'0 0.0
2017-Jun-05 13:58N 51°54' E 004°26'0 0.0
2017-Jun-05 13:28N 51°54' E 004°26'0 0.0
2017-Jun-05 12:58N 51°54' E 004°26'0 0.0
2017-Jun-05 12:28N 51°54' E 004°26'0 0.0
2017-Jun-05 11:58N 51°54' E 004°26'0 0.0
2017-Jun-05 11:28N 51°54' E 004°26'0 0.0
2017-Jun-05 10:58N 51°54' E 004°26'0 0.0
2017-Jun-05 10:28N 51°54' E 004°26'0 0.0
2017-Jun-05 09:58N 51°54' E 004°26'0 0.0
2017-Jun-05 09:28N 51°54' E 004°26'0 0.0
2017-Jun-05 08:58N 51°54' E 004°26'0 0.0
2017-Jun-05 08:28N 51°54' E 004°26'0 0.0
2017-Jun-05 07:58N 51°54' E 004°26'0 0.0
2017-Jun-05 07:28N 51°54' E 004°26'0 0.0
2017-Jun-05 06:58N 51°54' E 004°26'0 0.0
2017-Jun-05 06:28N 51°54' E 004°26'0 0.0
2017-Jun-05 05:58N 51°54' E 004°26'0 0.0
2017-Jun-05 05:28N 51°54' E 004°26'0 0.0
2017-Jun-05 04:58N 51°54' E 004°26'0 0.0
2017-Jun-05 04:28N 51°54' E 004°26'0 0.0
2017-Jun-05 03:58N 51°54' E 004°26'0 0.0
2017-Jun-05 03:28N 51°54' E 004°26'0 0.0
2017-Jun-05 02:58N 51°54' E 004°26'0 0.0
2017-Jun-05 02:25N 51°54' E 004°26'0 0.0
2017-Jun-05 01:58N 51°54' E 004°26'0 0.0
2017-Jun-05 01:28N 51°54' E 004°26'0 0.0
2017-Jun-05 00:58N 51°54' E 004°26'0 0.0
2017-Jun-05 00:31N 51°54' E 004°26'0 0.0
2017-Jun-05 00:01N 51°54' E 004°26'0 0.0
2017-Jun-04 23:31N 51°54' E 004°26'0 0.0
2017-Jun-04 23:00N 51°54' E 004°26'0 0.0
2017-Jun-04 22:30N 51°54' E 004°26'0 0.0
2017-Jun-04 22:00N 51°54' E 004°26'0 0.0
2017-Jun-04 21:30N 51°54' E 004°26'0 0.0
2017-Jun-04 21:00N 51°54' E 004°26'0 0.0
2017-Jun-04 20:30N 51°54' E 004°26'0 0.0
2017-Jun-04 20:00N 51°54' E 004°26'0 0.0
2017-Jun-04 19:30N 51°54' E 004°26'0 0.0
2017-Jun-04 19:00N 51°54' E 004°26'0 0.0
2017-Jun-04 18:30N 51°54' E 004°26'0 0.0
2017-Jun-04 18:00N 51°54' E 004°26'0 0.0
2017-Jun-04 17:30N 51°54' E 004°26'0 0.0
2017-Jun-04 17:00N 51°54' E 004°26'0 0.0
2017-Jun-04 16:27N 51°54' E 004°26'0 0.0
2017-Jun-04 16:00N 51°54' E 004°26'0 0.0
2017-Jun-04 15:30N 51°54' E 004°26'0 0.0
2017-Jun-04 15:00N 51°54' E 004°26'0 0.0
2017-Jun-04 14:00N 51°54' E 004°26'0 0.5
2017-Jun-04 13:31N 51°54' E 004°26'4 8.8
2017-Jun-04 13:01N 51°54' E 004°19'612.2
2017-Jun-04 12:30N 51°57' E 004°10'713.3
2017-Jun-04 12:00N 51°60' E 004°00'815.2
2017-Jun-04 11:30N 51°59' E 003°48'5814.7
2017-Jun-04 07:35N 51°35' E 002°24'515.5
2017-Jun-04 07:16N 51°31' E 002°18'415.5
2017-Jun-04 07:00N 51°28' E 002°14'815.2
2017-Jun-04 06:30N 51°21' E 002°09'715.3
2017-Jun-04 06:00N 51°14' E 002°04'815.1
2017-Jun-04 05:30N 51°10' E 001°54'715.0
2017-Jun-04 05:01N 51°06' E 001°44'714.7
2017-Jun-04 04:30N 51°00' E 001°36'714.5
2017-Jun-04 04:00N 50°55' E 001°28'6013.4
2017-Jun-03 23:32N 50°21' E 000°09'014.5
2017-Jun-03 23:30N 50°21' E 000°09'814.4
2017-Jun-03 22:55N 50°19' W 000°04'614.3
2017-Jun-03 22:30N 50°18' W 000°13'714.1
2017-Jun-03 22:00N 50°16' W 000°24'1513.7
2017-Jun-03 20:54N 50°12' W 000°46'613.6
2017-Jun-03 20:27N 50°11' W 000°55'713.9
2017-Jun-03 19:59N 50°09' W 001°05'814.3
2017-Jun-03 19:23N 50°06' W 001°18'614.7
2017-Jun-03 19:00N 50°05' W 001°26'815.1
2017-Jun-03 18:30N 50°03' W 001°38'815.7
2017-Jun-03 18:01N 50°00' W 001°49'5316.5
2017-Jun-03 14:48N 49°43' W 003°07'916.3
2017-Jun-03 14:17N 49°39' W 003°19'8314.7
2017-Jun-03 08:37N 48°57' W 005°09'215.0
2017-Jun-03 08:29N 48°56' W 005°11'715.0
2017-Jun-03 08:00N 48°52' W 005°21'815.0
2017-Jun-03 07:29N 48°48' W 005°31'59413.3
2017-Jun-01 10:56N 39°24' W 009°51'613.3
2017-Jun-01 10:30N 39°18' W 009°51'713.3
2017-Jun-01 10:00N 39°12' W 009°51'713.1
2017-Jun-01 09:30N 39°05' W 009°51'612.9
2017-Jun-01 09:00N 38°59' W 009°51'  
Track history (hours):
 
Tides and Currents Weather Stations Pressure Air Temp Water Temp Dewpoint Dewpoint Depression Visibility Wind Speed Wind Dir Waves Ship Positions

Tracer

Last reported at 2017-Jun-11 08:52 UTC. Time now 2017-Jun-28 12:12 UTC.
Position N 49°42' W 003°43'.
Warning: this ship's position is 17 days out of date.

Length 101 m; beam 20 m.

Type: Cargo ship. MMSI: 245949000.

Date/timePositionNaut miles runAvg speedWind from/ knotsBaromVisibWave heightAir tempDewpointWater temp
2017-Jun-11 08:52N 49°42' W 003°43'511.4
2017-Jun-11 08:25N 49°44' W 003°36'1111.1
2017-Jun-11 07:25N 49°50' W 003°21'410.8
2017-Jun-11 07:00N 49°52' W 003°15'611.0
2017-Jun-11 06:28N 49°55' W 003°07'612.0
2017-Jun-11 06:00N 49°58' W 002°59'612.7
2017-Jun-11 05:30N 50°00' W 002°50'713.6
2017-Jun-11 05:00N 50°02' W 002°40'3315.6
2017-Jun-11 02:52N 50°11' W 001°50'616.9
2017-Jun-11 02:30N 50°13' W 001°41'816.6
2017-Jun-11 02:00N 50°15' W 001°28'1116.2
2017-Jun-11 01:21N 50°18' W 001°12'3513.8
2017-Jun-10 22:47N 50°28' W 000°19'612.5
2017-Jun-10 22:19N 50°30' W 000°11'412.2
2017-Jun-10 22:00N 50°31' W 000°05'612.2
2017-Jun-10 21:30N 50°33' E 000°05'712.2
2017-Jun-10 20:58N 50°35' E 000°14'4314.3
2017-Jun-10 17:58N 50°56' E 001°14'815.7
2017-Jun-10 17:27N 51°02' E 001°23'614.8
2017-Jun-10 17:00N 51°06' E 001°31'713.9
2017-Jun-10 16:30N 51°10' E 001°39'613.0
2017-Jun-10 16:00N 51°15' E 001°47'612.6
2017-Jun-10 15:30N 51°20' E 001°52'612.3
2017-Jun-10 15:00N 51°25' E 001°57'1212.2
2017-Jun-10 14:00N 51°35' E 002°09'712.7
2017-Jun-10 13:29N 51°40' E 002°16'2513.7
2017-Jun-10 11:39N 51°59' E 002°43'514.9
2017-Jun-10 11:18N 52°03' E 002°48'415.2
2017-Jun-10 11:00N 52°06' E 002°53'815.3
2017-Jun-10 10:29N 52°12' E 003°01'815.5
2017-Jun-10 10:00N 52°19' E 003°08'1615.5
2017-Jun-10 08:56N 52°32' E 003°24'715.4
2017-Jun-10 08:29N 52°37' E 003°31'715.3
2017-Jun-10 07:59N 52°43' E 003°39'815.3
2017-Jun-10 07:29N 52°49' E 003°47'714.8
2017-Jun-10 06:59N 52°55' E 003°55'814.3
2017-Jun-10 06:27N 53°00' E 004°05'614.2
2017-Jun-10 06:00N 53°04' E 004°13'714.0
2017-Jun-10 05:30N 53°08' E 004°22'1913.3
2017-Jun-10 04:03N 53°26' E 004°35'113.9
2017-Jun-10 04:00N 53°26' E 004°36'814.0
2017-Jun-10 03:24N 53°31' E 004°48'615.0
2017-Jun-10 03:00N 53°33' E 004°58'12114.2
2017-Jun-09 18:31N 53°60' E 008°17'0 8.7
2017-Jun-09 18:30N 53°60' E 008°17'714.8
2017-Jun-09 18:00N 53°59' E 008°29'815.3
2017-Jun-09 17:29N 53°55' E 008°41'714.9
2017-Jun-09 17:00N 53°50' E 008°51'917.6
2017-Jun-09 16:30N 53°53' E 009°05'612.9
2017-Jun-09 16:00N 53°52' E 009°16'815.2
2017-Jun-09 15:30N 53°46' E 009°24'714.2
2017-Jun-09 15:00N 53°40' E 009°31'612.7
2017-Jun-09 14:30N 53°35' E 009°37'1110.6
2017-Jun-09 13:30N 53°33' E 009°54'3 5.9
2017-Jun-09 12:58N 53°32' E 009°59'0 0.0
2017-Jun-09 12:28N 53°32' E 009°59'0 0.0
2017-Jun-09 11:58N 53°32' E 009°59'0 0.0
2017-Jun-09 11:28N 53°32' E 009°59'0 0.0
2017-Jun-09 10:58N 53°32' E 009°59'0 0.0
2017-Jun-09 10:28N 53°32' E 009°59'0 0.0
2017-Jun-09 09:58N 53°32' E 009°59'0 0.0
2017-Jun-09 09:28N 53°32' E 009°59'0 0.0
2017-Jun-09 08:58N 53°32' E 009°59'0 0.0
2017-Jun-09 08:28N 53°32' E 009°59'0 0.0
2017-Jun-09 07:58N 53°32' E 009°59'0 0.0
2017-Jun-09 07:28N 53°32' E 009°59'0 0.0
2017-Jun-09 06:58N 53°32' E 009°59'0 0.0
2017-Jun-09 06:28N 53°32' E 009°59'0 0.0
2017-Jun-09 05:58N 53°32' E 009°59'0 0.0
2017-Jun-09 05:28N 53°32' E 009°59'0 0.0
2017-Jun-09 04:58N 53°32' E 009°59'0 0.0
2017-Jun-09 04:28N 53°32' E 009°59'0 0.0
2017-Jun-09 04:01N 53°32' E 009°59'0 0.0
2017-Jun-09 03:31N 53°32' E 009°59'0 0.0
2017-Jun-09 03:00N 53°32' E 009°59'0 0.0
2017-Jun-09 02:30N 53°32' E 009°59'0 0.0
2017-Jun-09 02:00N 53°32' E 009°59'0 0.0
2017-Jun-09 01:31N 53°32' E 009°59'0 0.0
2017-Jun-09 01:00N 53°32' E 009°59'0 0.0
2017-Jun-09 00:30N 53°32' E 009°59'0 0.0
2017-Jun-09 00:00N 53°32' E 009°59'0 0.0
2017-Jun-08 23:31N 53°32' E 009°59'2 4.8
2017-Jun-08 23:01N 53°32' E 009°55'611.6
2017-Jun-08 22:31N 53°34' E 009°46'713.5
2017-Jun-08 22:00N 53°36' E 009°35'612.2
2017-Jun-08 21:30N 53°41' E 009°30'713.8
2017-Jun-08 21:00N 53°47' E 009°23'713.2
2017-Jun-08 20:31N 53°52' E 009°16'611.9
2017-Jun-08 20:00N 53°53' E 009°06'510.5
2017-Jun-08 19:31N 53°51' E 008°58'612.5
2017-Jun-08 19:00N 53°50' E 008°47'611.2
2017-Jun-08 18:30N 53°55' E 008°41'612.0
2017-Jun-08 18:00N 53°58' E 008°32'612.9
2017-Jun-08 17:30N 53°59' E 008°22'713.8
2017-Jun-08 16:58N 53°60' E 008°09'511.4
2017-Jun-08 16:30N 53°59' E 008°00'612.1
2017-Jun-08 16:01N 53°58' E 007°50'612.0
2017-Jun-08 15:30N 53°56' E 007°40'12713.9
2017-Jun-08 06:22N 53°04' E 004°25'514.9
2017-Jun-08 06:00N 52°59' E 004°21'814.9
2017-Jun-08 05:30N 52°53' E 004°15'714.9
2017-Jun-08 05:00N 52°46' E 004°09'815.2
2017-Jun-08 04:30N 52°40' E 004°02'815.4
2017-Jun-08 04:00N 52°33' E 003°56'815.3
2017-Jun-08 03:30N 52°25' E 003°53'815.3
2017-Jun-08 03:00N 52°18' E 003°52'815.2
2017-Jun-08 02:30N 52°10' E 003°54'714.1
2017-Jun-08 02:00N 52°04' E 003°58'613.0
2017-Jun-08 01:30N 51°59' E 004°05'4 8.9
2017-Jun-08 01:00N 51°57' E 004°11'510.5
2017-Jun-08 00:30N 51°54' E 004°18'5 9.1
2017-Jun-08 00:00N 51°54' E 004°25'0 0.7
2017-Jun-07 23:30N 51°54' E 004°26'0 0.0
2017-Jun-07 23:00N 51°54' E 004°26'0 0.0
2017-Jun-07 22:30N 51°54' E 004°26'0 0.0
2017-Jun-07 22:00N 51°54' E 004°26'0 0.0
2017-Jun-07 21:30N 51°54' E 004°26'0 0.0
2017-Jun-07 21:00N 51°54' E 004°26'0 0.0
2017-Jun-07 20:29N 51°54' E 004°26'0 0.0
2017-Jun-07 19:59N 51°54' E 004°26'0 0.0
2017-Jun-07 19:29N 51°54' E 004°26'0 0.0
2017-Jun-07 18:59N 51°54' E 004°26'0 0.0
2017-Jun-07 18:29N 51°54' E 004°26'0 0.0
2017-Jun-07 17:59N 51°54' E 004°26'0 0.0
2017-Jun-07 17:29N 51°54' E 004°26'0 0.0
2017-Jun-07 16:59N 51°54' E 004°26'0 0.0
2017-Jun-07 16:29N 51°54' E 004°26'0 0.0
2017-Jun-07 15:59N 51°54' E 004°26'0 0.0
2017-Jun-07 15:30N 51°54' E 004°26'0 0.0
2017-Jun-07 14:59N 51°54' E 004°26'0 0.0
2017-Jun-07 13:57N 51°54' E 004°26'0 0.0
2017-Jun-07 13:30N 51°54' E 004°26'0 0.0
2017-Jun-07 12:54N 51°54' E 004°26'0 0.0
2017-Jun-07 12:29N 51°54' E 004°26'0 0.0
2017-Jun-07 12:00N 51°54' E 004°26'0 0.0
2017-Jun-07 11:30N 51°54' E 004°26'0 0.0
2017-Jun-07 10:57N 51°54' E 004°26'0 0.0
2017-Jun-07 10:30N 51°54' E 004°26'0 0.0
2017-Jun-07 09:59N 51°54' E 004°26'0 0.0
2017-Jun-07 09:30N 51°54' E 004°26'0 0.0
2017-Jun-07 09:00N 51°54' E 004°26'0 0.0
2017-Jun-07 08:29N 51°54' E 004°26'0 0.0
2017-Jun-07 07:59N 51°54' E 004°26'0 0.0
2017-Jun-07 07:29N 51°54' E 004°26'0 0.0
2017-Jun-07 06:59N 51°54' E 004°26'0 0.0
2017-Jun-07 06:29N 51°54' E 004°26'0 0.0
2017-Jun-07 05:59N 51°54' E 004°26'0 0.0
2017-Jun-07 05:29N 51°54' E 004°26'0 0.0
2017-Jun-07 04:59N 51°54' E 004°26'0 0.0
2017-Jun-07 04:29N 51°54' E 004°26'0 0.0
2017-Jun-07 03:59N 51°54' E 004°26'0 0.0
2017-Jun-07 03:29N 51°54' E 004°26'0 0.0
2017-Jun-07 02:59N 51°54' E 004°26'0 0.0
2017-Jun-07 02:29N 51°54' E 004°26'0 0.0
2017-Jun-07 01:59N 51°54' E 004°26'0 0.0
2017-Jun-07 01:29N 51°54' E 004°26'0 0.0
2017-Jun-07 00:59N 51°54' E 004°26'0 0.0
2017-Jun-07 00:29N 51°54' E 004°26'0 0.0
2017-Jun-06 23:59N 51°54' E 004°26'0 0.0
2017-Jun-06 23:29N 51°54' E 004°26'0 0.0
2017-Jun-06 22:59N 51°54' E 004°26'0 0.0
2017-Jun-06 22:29N 51°54' E 004°26'0 0.0
2017-Jun-06 21:59N 51°54' E 004°26'0 0.0
2017-Jun-06 21:29N 51°54' E 004°26'0 0.0
2017-Jun-06 20:59N 51°54' E 004°26'0 0.0
2017-Jun-06 20:29N 51°54' E 004°26'0 0.0
2017-Jun-06 19:59N 51°54' E 004°26'0 0.0
2017-Jun-06 19:29N 51°54' E 004°26'0 0.0
2017-Jun-06 18:59N 51°54' E 004°26'0 0.0
2017-Jun-06 18:29N 51°54' E 004°26'0 0.0
2017-Jun-06 17:59N 51°54' E 004°26'0 0.0
2017-Jun-06 17:29N 51°54' E 004°26'0 0.0
2017-Jun-06 16:59N 51°54' E 004°26'0 0.0
2017-Jun-06 16:29N 51°54' E 004°26'0 0.0
2017-Jun-06 15:59N 51°54' E 004°26'0 0.0
2017-Jun-06 15:29N 51°54' E 004°26'0 0.0
2017-Jun-06 14:59N 51°54' E 004°26'0 0.1
2017-Jun-06 14:29N 51°54' E 004°26'0 0.0
2017-Jun-06 13:29N 51°54' E 004°26'0 0.0
2017-Jun-06 12:59N 51°54' E 004°26'0 0.0
2017-Jun-06 12:29N 51°54' E 004°26'0 0.0
2017-Jun-06 11:59N 51°54' E 004°26'0 0.0
2017-Jun-06 11:29N 51°54' E 004°26'0 0.0
2017-Jun-06 10:59N 51°54' E 004°26'0 0.0
2017-Jun-06 10:29N 51°54' E 004°26'0 0.0
2017-Jun-06 09:58N 51°54' E 004°26'0 0.0
2017-Jun-06 09:29N 51°54' E 004°26'0 0.0
2017-Jun-06 08:58N 51°54' E 004°26'0 0.0
2017-Jun-06 08:28N 51°54' E 004°26'0 0.0
2017-Jun-06 07:58N 51°54' E 004°26'0 0.0
2017-Jun-06 07:28N 51°54' E 004°26'0 0.0
2017-Jun-06 06:58N 51°54' E 004°26'0 0.0
2017-Jun-06 06:28N 51°54' E 004°26'0 0.0
2017-Jun-06 05:58N 51°54' E 004°26'0 0.0
2017-Jun-06 05:28N 51°54' E 004°26'0 0.0
2017-Jun-06 04:59N 51°54' E 004°26'0 0.0
2017-Jun-06 04:25N 51°54' E 004°26'0 0.0
2017-Jun-06 03:59N 51°54' E 004°26'0 0.0
2017-Jun-06 03:29N 51°54' E 004°26'0 0.0
2017-Jun-06 02:59N 51°54' E 004°26'0 0.0
2017-Jun-06 02:29N 51°54' E 004°26'0 0.0
2017-Jun-06 01:59N 51°54' E 004°26'0 0.0
2017-Jun-06 01:28N 51°54' E 004°26'0 0.0
2017-Jun-06 00:59N 51°54' E 004°26'0 0.0
2017-Jun-06 00:29N 51°54' E 004°26'0 0.0
2017-Jun-05 23:58N 51°54' E 004°26'0 0.0
2017-Jun-05 23:29N 51°54' E 004°26'0 0.0
2017-Jun-05 22:59N 51°54' E 004°26'0 0.0
2017-Jun-05 22:28N 51°54' E 004°26'0 0.0
2017-Jun-05 21:59N 51°54' E 004°26'0 0.0
2017-Jun-05 21:29N 51°54' E 004°26'0 0.0
2017-Jun-05 20:59N 51°54' E 004°26'0 0.0
2017-Jun-05 20:28N 51°54' E 004°26'0 0.0
2017-Jun-05 19:59N 51°54' E 004°26'0 0.0
2017-Jun-05 19:25N 51°54' E 004°26'0 0.0
2017-Jun-05 18:58N 51°54' E 004°26'0 0.0
2017-Jun-05 18:28N 51°54' E 004°26'0 0.0
2017-Jun-05 17:58N 51°54' E 004°26'0 0.0
2017-Jun-05 17:28N 51°54' E 004°26'0 0.0
2017-Jun-05 16:58N 51°54' E 004°26'0 0.0
2017-Jun-05 16:28N 51°54' E 004°26'0 0.0
2017-Jun-05 15:58N 51°54' E 004°26'0 0.0
2017-Jun-05 15:28N 51°54' E 004°26'0 0.0
2017-Jun-05 14:58N 51°54' E 004°26'0 0.0
2017-Jun-05 13:58N 51°54' E 004°26'0 0.0
2017-Jun-05 13:28N 51°54' E 004°26'0 0.0
2017-Jun-05 12:58N 51°54' E 004°26'0 0.0
2017-Jun-05 12:28N 51°54' E 004°26'0 0.0
2017-Jun-05 11:58N 51°54' E 004°26'0 0.0
2017-Jun-05 11:28N 51°54' E 004°26'0 0.0
2017-Jun-05 10:58N 51°54' E 004°26'0 0.0
2017-Jun-05 10:28N 51°54' E 004°26'0 0.0
2017-Jun-05 09:58N 51°54' E 004°26'0 0.0
2017-Jun-05 09:28N 51°54' E 004°26'0 0.0
2017-Jun-05 08:58N 51°54' E 004°26'0 0.0
2017-Jun-05 08:28N 51°54' E 004°26'0 0.0
2017-Jun-05 07:58N 51°54' E 004°26'0 0.0
2017-Jun-05 07:28N 51°54' E 004°26'0 0.0
2017-Jun-05 06:58N 51°54' E 004°26'0 0.0
2017-Jun-05 06:28N 51°54' E 004°26'0 0.0
2017-Jun-05 05:58N 51°54' E 004°26'0 0.0
2017-Jun-05 05:28N 51°54' E 004°26'0 0.0
2017-Jun-05 04:58N 51°54' E 004°26'0 0.0
2017-Jun-05 04:28N 51°54' E 004°26'0 0.0
2017-Jun-05 03:58N 51°54' E 004°26'0 0.0
2017-Jun-05 03:28N 51°54' E 004°26'0 0.0
2017-Jun-05 02:58N 51°54' E 004°26'0 0.0
2017-Jun-05 02:25N 51°54' E 004°26'0 0.0
2017-Jun-05 01:58N 51°54' E 004°26'0 0.0
2017-Jun-05 01:28N 51°54' E 004°26'0 0.0
2017-Jun-05 00:58N 51°54' E 004°26'0 0.0
2017-Jun-05 00:31N 51°54' E 004°26'0 0.0
2017-Jun-05 00:01N 51°54' E 004°26'0 0.0
2017-Jun-04 23:31N 51°54' E 004°26'0 0.0
2017-Jun-04 23:00N 51°54' E 004°26'0 0.0
2017-Jun-04 22:30N 51°54' E 004°26'0 0.0
2017-Jun-04 22:00N 51°54' E 004°26'0 0.0
2017-Jun-04 21:30N 51°54' E 004°26'0 0.0
2017-Jun-04 21:00N 51°54' E 004°26'0 0.0
2017-Jun-04 20:30N 51°54' E 004°26'0 0.0
2017-Jun-04 20:00N 51°54' E 004°26'0 0.0
2017-Jun-04 19:30N 51°54' E 004°26'0 0.0
2017-Jun-04 19:00N 51°54' E 004°26'0 0.0
2017-Jun-04 18:30N 51°54' E 004°26'0 0.0
2017-Jun-04 18:00N 51°54' E 004°26'0 0.0
2017-Jun-04 17:30N 51°54' E 004°26'0 0.0
2017-Jun-04 17:00N 51°54' E 004°26'0 0.0
2017-Jun-04 16:27N 51°54' E 004°26'0 0.0
2017-Jun-04 16:00N 51°54' E 004°26'0 0.0
2017-Jun-04 15:30N 51°54' E 004°26'0 0.0
2017-Jun-04 15:00N 51°54' E 004°26'0 0.0
2017-Jun-04 14:00N 51°54' E 004°26'0 0.5
2017-Jun-04 13:31N 51°54' E 004°26'4 8.8
2017-Jun-04 13:01N 51°54' E 004°19'612.2
2017-Jun-04 12:30N 51°57' E 004°10'713.3
2017-Jun-04 12:00N 51°60' E 004°00'815.2
2017-Jun-04 11:30N 51°59' E 003°48'5814.7
2017-Jun-04 07:35N 51°35' E 002°24'515.5
2017-Jun-04 07:16N 51°31' E 002°18'415.5
2017-Jun-04 07:00N 51°28' E 002°14'815.2
2017-Jun-04 06:30N 51°21' E 002°09'715.3
2017-Jun-04 06:00N 51°14' E 002°04'815.1
2017-Jun-04 05:30N 51°10' E 001°54'715.0
2017-Jun-04 05:01N 51°06' E 001°44'714.7
2017-Jun-04 04:30N 51°00' E 001°36'714.5
2017-Jun-04 04:00N 50°55' E 001°28'6013.4
2017-Jun-03 23:32N 50°21' E 000°09'014.5
2017-Jun-03 23:30N 50°21' E 000°09'814.4
2017-Jun-03 22:55N 50°19' W 000°04'614.3
2017-Jun-03 22:30N 50°18' W 000°13'714.1
2017-Jun-03 22:00N 50°16' W 000°24'1513.7
2017-Jun-03 20:54N 50°12' W 000°46'613.6
2017-Jun-03 20:27N 50°11' W 000°55'713.9
2017-Jun-03 19:59N 50°09' W 001°05'814.3
2017-Jun-03 19:23N 50°06' W 001°18'614.7
2017-Jun-03 19:00N 50°05' W 001°26'815.1
2017-Jun-03 18:30N 50°03' W 001°38'815.7
2017-Jun-03 18:01N 50°00' W 001°49'5316.5
2017-Jun-03 14:48N 49°43' W 003°07'916.3
2017-Jun-03 14:17N 49°39' W 003°19'8314.7
2017-Jun-03 08:37N 48°57' W 005°09'215.0
2017-Jun-03 08:29N 48°56' W 005°11'715.0
2017-Jun-03 08:00N 48°52' W 005°21'815.0
2017-Jun-03 07:29N 48°48' W 005°31'59413.3
2017-Jun-01 10:56N 39°24' W 009°51'613.3
2017-Jun-01 10:30N 39°18' W 009°51'713.3
2017-Jun-01 10:00N 39°12' W 009°51'713.1
2017-Jun-01 09:30N 39°05' W 009°51'612.9
2017-Jun-01 09:00N 38°59' W 009°51'  

Dump ship's entire track history